sensor_id;sensor_type;location;lat;lon;timestamp;pressure;altitude;pressure_sealevel;temperature;humidity
7309;BME280;3695;53.330;9.876;2022-10-16T00:00:43;112752.06;;;13.37;70.68
7309;BME280;3695;53.330;9.876;2022-10-16T00:03:10;112787.38;;;13.58;70.45
7309;BME280;3695;53.330;9.876;2022-10-16T00:05:41;112953.84;;;13.51;70.45
7309;BME280;3695;53.330;9.876;2022-10-16T00:08:08;112893.50;;;13.45;70.64
7309;BME280;3695;53.330;9.876;2022-10-16T00:10:35;112843.13;;;13.37;70.84
7309;BME280;3695;53.330;9.876;2022-10-16T00:13:02;112843.34;;;13.43;70.81
7309;BME280;3695;53.330;9.876;2022-10-16T00:15:30;112751.63;;;13.25;71.30
7309;BME280;3695;53.330;9.876;2022-10-16T00:17:58;112773.78;;;13.34;71.18
7309;BME280;3695;53.330;9.876;2022-10-16T00:20:25;112741.34;;;13.43;71.20
7309;BME280;3695;53.330;9.876;2022-10-16T00:22:51;112673.41;;;13.27;71.68
7309;BME280;3695;53.330;9.876;2022-10-16T00:25:17;112623.94;;;13.19;71.93
7309;BME280;3695;53.330;9.876;2022-10-16T00:27:44;112612.19;;;13.21;71.99
7309;BME280;3695;53.330;9.876;2022-10-16T00:30:10;112573.00;;;13.19;72.17
7309;BME280;3695;53.330;9.876;2022-10-16T00:32:38;112521.66;;;13.09;72.47
7309;BME280;3695;53.330;9.876;2022-10-16T00:35:05;112520.00;;;13.14;72.46
7309;BME280;3695;53.330;9.876;2022-10-16T00:37:32;112486.91;;;13.04;72.78
7309;BME280;3695;53.330;9.876;2022-10-16T00:39:58;112501.78;;;13.13;72.67
7309;BME280;3695;53.330;9.876;2022-10-16T00:42:25;112519.25;;;13.18;72.68
7309;BME280;3695;53.330;9.876;2022-10-16T00:44:52;112431.47;;;13.06;73.09
7309;BME280;3695;53.330;9.876;2022-10-16T00:47:23;112412.34;;;13.06;73.09
7309;BME280;3695;53.330;9.876;2022-10-16T00:49:57;112458.13;;;13.15;73.02
7309;BME280;3695;53.330;9.876;2022-10-16T00:52:25;112405.03;;;13.05;73.40
7309;BME280;3695;53.330;9.876;2022-10-16T00:54:52;112363.13;;;13.03;73.61
7309;BME280;3695;53.330;9.876;2022-10-16T00:57:19;112288.28;;;12.95;73.98
7309;BME280;3695;53.330;9.876;2022-10-16T00:59:46;112296.50;;;12.97;74.02
7309;BME280;3695;53.330;9.876;2022-10-16T01:02:14;112283.00;;;13.01;74.17
7309;BME280;3695;53.330;9.876;2022-10-16T01:04:43;112255.63;;;12.98;74.45
7309;BME280;3695;53.330;9.876;2022-10-16T01:07:16;112234.84;;;13.03;74.52
7309;BME280;3695;53.330;9.876;2022-10-16T01:09:54;112189.41;;;13.05;74.85
7309;BME280;3695;53.330;9.876;2022-10-16T01:12:32;112068.94;;;12.91;75.50
7309;BME280;3695;53.330;9.876;2022-10-16T01:15:07;112014.22;;;12.87;75.78
7309;BME280;3695;53.330;9.876;2022-10-16T01:17:41;111981.38;;;12.82;76.16
7309;BME280;3695;53.330;9.876;2022-10-16T01:20:16;111930.91;;;12.67;76.68
7309;BME280;3695;53.330;9.876;2022-10-16T01:22:57;111902.78;;;12.69;76.80
7309;BME280;3695;53.330;9.876;2022-10-16T01:25:36;111879.06;;;12.65;76.99
7309;BME280;3695;53.330;9.876;2022-10-16T01:28:06;111905.50;;;12.68;76.94
7309;BME280;3695;53.330;9.876;2022-10-16T01:30:38;111918.34;;;12.73;77.06
7309;BME280;3695;53.330;9.876;2022-10-16T01:33:10;111923.13;;;12.80;76.94
7309;BME280;3695;53.330;9.876;2022-10-16T01:35:44;111845.25;;;12.58;77.58
7309;BME280;3695;53.330;9.876;2022-10-16T01:38:15;111828.94;;;12.60;77.68
7309;BME280;3695;53.330;9.876;2022-10-16T01:40:46;111833.47;;;12.59;77.76
7309;BME280;3695;53.330;9.876;2022-10-16T01:43:19;111824.50;;;12.65;77.79
7309;BME280;3695;53.330;9.876;2022-10-16T01:45:47;111780.00;;;12.68;78.11
7309;BME280;3695;53.330;9.876;2022-10-16T01:48:17;111716.25;;;12.63;78.57
7309;BME280;3695;53.330;9.876;2022-10-16T01:50:50;111699.38;;;12.79;78.59
7309;BME280;3695;53.330;9.876;2022-10-16T01:53:18;111581.91;;;12.73;79.32
7309;BME280;3695;53.330;9.876;2022-10-16T01:55:47;111509.97;;;12.68;79.93
7309;BME280;3695;53.330;9.876;2022-10-16T01:58:16;111435.56;;;12.76;80.37
7309;BME280;3695;53.330;9.876;2022-10-16T02:00:44;111318.22;;;12.72;81.28
7309;BME280;3695;53.330;9.876;2022-10-16T02:03:15;111223.63;;;12.71;81.98
7309;BME280;3695;53.330;9.876;2022-10-16T02:05:45;111110.97;;;12.75;82.73
7309;BME280;3695;53.330;9.876;2022-10-16T02:08:12;111044.50;;;12.68;83.55
7309;BME280;3695;53.330;9.876;2022-10-16T02:10:39;111014.56;;;12.71;83.97
7309;BME280;3695;53.330;9.876;2022-10-16T02:13:08;110935.31;;;12.57;85.03
7309;BME280;3695;53.330;9.876;2022-10-16T02:15:37;110930.81;;;12.59;85.28
7309;BME280;3695;53.330;9.876;2022-10-16T02:18:04;110877.16;;;12.57;86.08
7309;BME280;3695;53.330;9.876;2022-10-16T02:20:35;110792.47;;;12.37;87.16
7309;BME280;3695;53.330;9.876;2022-10-16T02:23:03;110767.81;;;12.26;87.93
7309;BME280;3695;53.330;9.876;2022-10-16T02:25:32;110838.88;;;12.46;87.15
7309;BME280;3695;53.330;9.876;2022-10-16T02:28:04;110838.09;;;12.59;87.07
7309;BME280;3695;53.330;9.876;2022-10-16T02:30:36;110777.13;;;12.51;87.91
7309;BME280;3695;53.330;9.876;2022-10-16T02:33:07;110711.59;;;12.35;88.80
7309;BME280;3695;53.330;9.876;2022-10-16T02:35:36;110736.19;;;12.42;88.52
7309;BME280;3695;53.330;9.876;2022-10-16T02:38:04;110743.44;;;12.40;88.72
7309;BME280;3695;53.330;9.876;2022-10-16T02:40:31;110758.00;;;12.42;88.83
7309;BME280;3695;53.330;9.876;2022-10-16T02:42:58;110757.13;;;12.49;88.61
7309;BME280;3695;53.330;9.876;2022-10-16T02:45:24;110735.31;;;12.49;89.00
7309;BME280;3695;53.330;9.876;2022-10-16T02:47:51;110698.00;;;12.38;89.75
7309;BME280;3695;53.330;9.876;2022-10-16T02:50:19;110679.78;;;12.34;90.17
7309;BME280;3695;53.330;9.876;2022-10-16T02:52:45;110704.38;;;12.41;90.06
7309;BME280;3695;53.330;9.876;2022-10-16T02:55:12;110616.06;;;12.18;91.89
7309;BME280;3695;53.330;9.876;2022-10-16T02:57:39;110644.25;;;12.23;91.33
7309;BME280;3695;53.330;9.876;2022-10-16T03:00:07;110665.22;;;12.30;90.89
7309;BME280;3695;53.330;9.876;2022-10-16T03:02:34;110686.16;;;12.33;90.98
7309;BME280;3695;53.330;9.876;2022-10-16T03:05:01;110679.72;;;12.29;91.16
7309;BME280;3695;53.330;9.876;2022-10-16T03:07:29;110654.34;;;12.33;91.32
7309;BME280;3695;53.330;9.876;2022-10-16T03:09:55;110616.09;;;12.21;92.15
7309;BME280;3695;53.330;9.876;2022-10-16T03:12:22;110612.41;;;12.16;92.33
7309;BME280;3695;53.330;9.876;2022-10-16T03:14:48;110640.59;;;12.21;92.04
7309;BME280;3695;53.330;9.876;2022-10-16T03:17:15;110567.78;;;11.94;93.67
7309;BME280;3695;53.330;9.876;2022-10-16T03:19:42;110668.75;;;12.17;91.78
7309;BME280;3695;53.330;9.876;2022-10-16T03:22:09;110670.47;;;12.06;92.03
7309;BME280;3695;53.330;9.876;2022-10-16T03:24:37;110656.75;;;11.95;92.42
7309;BME280;3695;53.330;9.876;2022-10-16T03:27:03;110712.28;;;12.11;91.17
7309;BME280;3695;53.330;9.876;2022-10-16T03:29:30;110697.63;;;11.96;91.80
7309;BME280;3695;53.330;9.876;2022-10-16T03:31:57;110761.41;;;12.20;90.35
7309;BME280;3695;53.330;9.876;2022-10-16T03:34:23;110779.56;;;12.21;90.39
7309;BME280;3695;53.330;9.876;2022-10-16T03:36:50;110749.59;;;12.19;90.74
7309;BME280;3695;53.330;9.876;2022-10-16T03:39:17;110738.72;;;12.24;90.94
7309;BME280;3695;53.330;9.876;2022-10-16T03:41:45;110682.28;;;12.09;92.12
7309;BME280;3695;53.330;9.876;2022-10-16T03:44:12;110686.94;;;12.24;91.66
7309;BME280;3695;53.330;9.876;2022-10-16T03:46:39;110627.84;;;12.14;92.51
7309;BME280;3695;53.330;9.876;2022-10-16T03:49:05;110639.66;;;12.16;92.61
7309;BME280;3695;53.330;9.876;2022-10-16T03:51:32;110645.13;;;12.19;92.37
7309;BME280;3695;53.330;9.876;2022-10-16T03:53:58;110626.91;;;12.09;92.94
7309;BME280;3695;53.330;9.876;2022-10-16T03:56:25;110657.81;;;12.14;92.66
7309;BME280;3695;53.330;9.876;2022-10-16T03:58:52;110697.84;;;12.22;92.11
7309;BME280;3695;53.330;9.876;2022-10-16T04:01:19;110654.13;;;12.06;93.16
7309;BME280;3695;53.330;9.876;2022-10-16T04:03:46;110685.03;;;12.11;92.59
7309;BME280;3695;53.330;9.876;2022-10-16T04:06:12;110653.22;;;12.05;93.06
7309;BME280;3695;53.330;9.876;2022-10-16T04:08:39;110670.41;;;12.00;93.35
7309;BME280;3695;53.330;9.876;2022-10-16T04:11:05;110664.00;;;11.93;93.61
7309;BME280;3695;53.330;9.876;2022-10-16T04:13:32;110700.34;;;11.96;93.05
7309;BME280;3695;53.330;9.876;2022-10-16T04:16:00;110667.53;;;11.83;93.84
7309;BME280;3695;53.330;9.876;2022-10-16T04:18:26;110633.84;;;11.76;94.03
7309;BME280;3695;53.330;9.876;2022-10-16T04:20:54;110664.66;;;11.72;93.70
7309;BME280;3695;53.330;9.876;2022-10-16T04:23:21;110742.63;;;11.64;93.08
7309;BME280;3695;53.330;9.876;2022-10-16T04:25:48;110811.72;;;11.75;91.50
7309;BME280;3695;53.330;9.876;2022-10-16T04:28:14;110886.19;;;11.77;90.58
7309;BME280;3695;53.330;9.876;2022-10-16T04:30:41;110960.78;;;11.85;89.67
7309;BME280;3695;53.330;9.876;2022-10-16T04:33:09;110976.22;;;11.85;89.54
7309;BME280;3695;53.330;9.876;2022-10-16T04:35:36;110996.97;;;11.78;89.33
7309;BME280;3695;53.330;9.876;2022-10-16T04:38:02;110993.28;;;11.76;89.20
7309;BME280;3695;53.330;9.876;2022-10-16T04:40:29;110993.19;;;11.70;89.16
7309;BME280;3695;53.330;9.876;2022-10-16T04:42:57;111023.94;;;11.63;88.96
7309;BME280;3695;53.330;9.876;2022-10-16T04:45:24;111102.19;;;11.76;87.80
7309;BME280;3695;53.330;9.876;2022-10-16T04:47:50;111194.22;;;11.92;86.83
7309;BME280;3695;53.330;9.876;2022-10-16T04:50:18;111169.38;;;11.77;87.34
7309;BME280;3695;53.330;9.876;2022-10-16T04:52:45;111173.28;;;11.88;86.77
7309;BME280;3695;53.330;9.876;2022-10-16T04:55:11;111174.16;;;11.86;86.75
7309;BME280;3695;53.330;9.876;2022-10-16T04:57:38;111227.88;;;11.94;86.26
7309;BME280;3695;53.330;9.876;2022-10-16T05:00:05;111157.66;;;11.80;86.86
7309;BME280;3695;53.330;9.876;2022-10-16T05:02:31;111205.97;;;11.88;86.21
7309;BME280;3695;53.330;9.876;2022-10-16T05:04:58;111227.69;;;11.85;86.23
7309;BME280;3695;53.330;9.876;2022-10-16T05:07:26;111188.44;;;11.77;86.51
7309;BME280;3695;53.330;9.876;2022-10-16T05:09:52;111225.88;;;11.84;86.03
7309;BME280;3695;53.330;9.876;2022-10-16T05:12:18;111217.47;;;11.75;86.32
7309;BME280;3695;53.330;9.876;2022-10-16T05:14:46;111222.88;;;11.74;86.15
7309;BME280;3695;53.330;9.876;2022-10-16T05:17:12;111247.38;;;11.72;86.05
7309;BME280;3695;53.330;9.876;2022-10-16T05:19:38;111251.84;;;11.68;85.99
7309;BME280;3695;53.330;9.876;2022-10-16T05:22:05;111232.56;;;11.58;86.19
7309;BME280;3695;53.330;9.876;2022-10-16T05:24:33;111307.22;;;11.69;85.32
7309;BME280;3695;53.330;9.876;2022-10-16T05:26:59;111338.97;;;11.68;85.20
7309;BME280;3695;53.330;9.876;2022-10-16T05:29:25;111347.09;;;11.67;85.06
7309;BME280;3695;53.330;9.876;2022-10-16T05:31:53;111363.41;;;11.65;84.96
7309;BME280;3695;53.330;9.876;2022-10-16T05:34:20;111395.41;;;11.76;84.37
7309;BME280;3695;53.330;9.876;2022-10-16T05:36:47;111405.38;;;11.75;84.21
7309;BME280;3695;53.330;9.876;2022-10-16T05:39:14;111363.19;;;11.55;84.84
7309;BME280;3695;53.330;9.876;2022-10-16T05:41:42;111389.63;;;11.60;84.26
7309;BME280;3695;53.330;9.876;2022-10-16T05:44:09;111428.59;;;11.58;84.00
7309;BME280;3695;53.330;9.876;2022-10-16T05:46:36;111445.03;;;11.62;83.50
7309;BME280;3695;53.330;9.876;2022-10-16T05:49:02;111500.44;;;11.64;83.22
7309;BME280;3695;53.330;9.876;2022-10-16T05:51:29;111527.72;;;11.66;82.79
7309;BME280;3695;53.330;9.876;2022-10-16T05:53:55;111593.28;;;11.75;82.10
7309;BME280;3695;53.330;9.876;2022-10-16T05:56:22;111606.00;;;11.75;81.90
7309;BME280;3695;53.330;9.876;2022-10-16T05:58:50;111588.22;;;11.53;82.37
7309;BME280;3695;53.330;9.876;2022-10-16T06:01:17;111649.50;;;11.72;81.35
7309;BME280;3695;53.330;9.876;2022-10-16T06:03:44;111640.97;;;11.58;81.47
7309;BME280;3695;53.330;9.876;2022-10-16T06:06:12;111724.81;;;11.71;80.61
7309;BME280;3695;53.330;9.876;2022-10-16T06:08:40;111739.25;;;11.67;80.37
7309;BME280;3695;53.330;9.876;2022-10-16T06:11:08;111789.31;;;11.72;79.84
7309;BME280;3695;53.330;9.876;2022-10-16T06:13:35;111832.09;;;11.76;79.47
7309;BME280;3695;53.330;9.876;2022-10-16T06:16:04;111837.19;;;11.64;79.37
7309;BME280;3695;53.330;9.876;2022-10-16T06:18:30;111891.22;;;11.79;78.70
7309;BME280;3695;53.330;9.876;2022-10-16T06:20:57;111937.69;;;11.83;78.27
7309;BME280;3695;53.330;9.876;2022-10-16T06:23:24;111962.97;;;11.79;78.14
7309;BME280;3695;53.330;9.876;2022-10-16T06:25:51;111991.94;;;11.77;77.90
7309;BME280;3695;53.330;9.876;2022-10-16T06:28:17;112046.84;;;11.89;77.26
7309;BME280;3695;53.330;9.876;2022-10-16T06:30:44;112045.63;;;11.80;77.30
7309;BME280;3695;53.330;9.876;2022-10-16T06:33:12;112082.81;;;11.79;76.88
7309;BME280;3695;53.330;9.876;2022-10-16T06:35:39;112121.94;;;11.81;76.59
7309;BME280;3695;53.330;9.876;2022-10-16T06:38:05;112191.25;;;11.89;76.09
7309;BME280;3695;53.330;9.876;2022-10-16T06:40:32;112205.66;;;11.85;75.88
7309;BME280;3695;53.330;9.876;2022-10-16T06:42:59;112331.56;;;12.02;75.19
7309;BME280;3695;53.330;9.876;2022-10-16T06:45:25;112361.50;;;12.01;75.01
7309;BME280;3695;53.330;9.876;2022-10-16T06:47:51;112460.28;;;12.19;74.36
7309;BME280;3695;53.330;9.876;2022-10-16T06:50:19;112518.72;;;12.27;74.02
7309;BME280;3695;53.330;9.876;2022-10-16T06:52:46;112568.06;;;12.33;73.73
7309;BME280;3695;53.330;9.876;2022-10-16T06:55:12;112546.91;;;12.27;73.76
7309;BME280;3695;53.330;9.876;2022-10-16T06:57:39;112565.41;;;12.35;73.51
7309;BME280;3695;53.330;9.876;2022-10-16T07:00:07;112598.06;;;12.33;73.47
7309;BME280;3695;53.330;9.876;2022-10-16T07:02:33;112632.00;;;12.41;73.16
7309;BME280;3695;53.330;9.876;2022-10-16T07:04:59;112698.69;;;12.49;72.96
7309;BME280;3695;53.330;9.876;2022-10-16T07:07:27;112701.53;;;12.52;72.91
7309;BME280;3695;53.330;9.876;2022-10-16T07:09:54;112751.09;;;12.65;72.61
7309;BME280;3695;53.330;9.876;2022-10-16T07:12:21;112796.97;;;12.75;72.46
7309;BME280;3695;53.330;9.876;2022-10-16T07:14:47;112850.19;;;12.86;72.28
7309;BME280;3695;53.330;9.876;2022-10-16T07:17:13;112895.28;;;12.99;72.22
7309;BME280;3695;53.330;9.876;2022-10-16T07:19:40;112947.91;;;13.17;71.99
7309;BME280;3695;53.330;9.876;2022-10-16T07:22:06;112966.56;;;13.27;72.08
7309;BME280;3695;53.330;9.876;2022-10-16T07:24:34;112989.81;;;13.40;72.10
7309;BME280;3695;53.330;9.876;2022-10-16T07:27:01;112906.53;;;13.29;72.68
7309;BME280;3695;53.330;9.876;2022-10-16T07:29:27;112942.78;;;13.48;72.66
7309;BME280;3695;53.330;9.876;2022-10-16T07:31:54;112937.97;;;13.65;72.74
7309;BME280;3695;53.330;9.876;2022-10-16T07:34:20;112909.34;;;13.79;72.93
7309;BME280;3695;53.330;9.876;2022-10-16T07:36:48;112834.16;;;13.92;73.25
7309;BME280;3695;53.330;9.876;2022-10-16T07:39:14;112709.38;;;13.94;73.89
7309;BME280;3695;53.330;9.876;2022-10-16T07:41:42;112618.59;;;14.06;74.36
7309;BME280;3695;53.330;9.876;2022-10-16T07:44:09;112519.47;;;14.13;74.90
7309;BME280;3695;53.330;9.876;2022-10-16T07:46:35;112440.47;;;14.24;75.38
7309;BME280;3695;53.330;9.876;2022-10-16T07:49:02;112310.06;;;14.23;76.18
7309;BME280;3695;53.330;9.876;2022-10-16T07:51:28;112251.50;;;14.51;76.38
7309;BME280;3695;53.330;9.876;2022-10-16T07:53:55;112059.88;;;14.46;77.52
7309;BME280;3695;53.330;9.876;2022-10-16T07:56:21;111968.09;;;14.65;78.00
7309;BME280;3695;53.330;9.876;2022-10-16T07:58:50;111739.13;;;14.62;79.35
7309;BME280;3695;53.330;9.876;2022-10-16T08:01:17;111607.16;;;14.83;80.08
7309;BME280;3695;53.330;9.876;2022-10-16T08:04:07;111390.09;;;14.93;81.23
7309;BME280;3695;53.330;9.876;2022-10-16T08:06:35;111085.34;;;14.97;82.78
7309;BME280;3695;53.330;9.876;2022-10-16T08:09:03;110953.06;;;15.21;83.73
7309;BME280;3695;53.330;9.876;2022-10-16T08:11:29;110738.59;;;15.19;85.92
7309;BME280;3695;53.330;9.876;2022-10-16T08:13:57;110423.88;;;15.01;89.59
7309;BME280;3695;53.330;9.876;2022-10-16T08:16:24;110253.19;;;15.09;92.17
7309;BME280;3695;53.330;9.876;2022-10-16T08:18:50;110160.94;;;15.19;94.15
7309;BME280;3695;53.330;9.876;2022-10-16T08:21:19;110045.56;;;15.43;96.08
7309;BME280;3695;53.330;9.876;2022-10-16T08:23:46;109733.97;;;15.18;100.00
7309;BME280;3695;53.330;9.876;2022-10-16T08:26:12;109625.78;;;15.40;100.00
7309;BME280;3695;53.330;9.876;2022-10-16T08:28:39;109493.66;;;15.32;100.00
7309;BME280;3695;53.330;9.876;2022-10-16T08:31:08;109402.03;;;15.45;100.00
7309;BME280;3695;53.330;9.876;2022-10-16T08:33:35;109278.56;;;15.54;100.00
7309;BME280;3695;53.330;9.876;2022-10-16T08:36:03;109128.91;;;15.53;100.00
7309;BME280;3695;53.330;9.876;2022-10-16T08:38:29;108996.53;;;15.54;100.00
7309;BME280;3695;53.330;9.876;2022-10-16T08:41:02;108890.50;;;15.61;100.00
7309;BME280;3695;53.330;9.876;2022-10-16T08:43:47;108752.97;;;15.51;100.00
7309;BME280;3695;53.330;9.876;2022-10-16T08:46:30;108656.50;;;15.44;100.00
7309;BME280;3695;53.330;9.876;2022-10-16T08:49:02;108554.44;;;15.41;100.00
7309;BME280;3695;53.330;9.876;2022-10-16T08:51:32;108485.50;;;15.53;100.00
7309;BME280;3695;53.330;9.876;2022-10-16T08:54:03;108443.50;;;15.76;100.00
7309;BME280;3695;53.330;9.876;2022-10-16T08:56:30;108295.31;;;15.63;100.00
7309;BME280;3695;53.330;9.876;2022-10-16T08:58:59;108250.78;;;15.79;100.00
7309;BME280;3695;53.330;9.876;2022-10-16T09:01:35;108151.91;;;15.85;100.00
7309;BME280;3695;53.330;9.876;2022-10-16T09:04:23;108022.84;;;15.91;100.00
7309;BME280;3695;53.330;9.876;2022-10-16T09:07:01;107905.25;;;15.70;100.00
7309;BME280;3695;53.330;9.876;2022-10-16T09:09:42;107805.56;;;15.74;100.00
7309;BME280;3695;53.330;9.876;2022-10-16T09:12:19;107759.97;;;15.73;100.00
7309;BME280;3695;53.330;9.876;2022-10-16T09:14:56;107709.03;;;15.87;100.00
7309;BME280;3695;53.330;9.876;2022-10-16T09:17:44;107676.28;;;16.01;100.00
7309;BME280;3695;53.330;9.876;2022-10-16T09:20:19;107662.69;;;16.15;100.00
7309;BME280;3695;53.330;9.876;2022-10-16T09:22:51;107521.84;;;15.88;100.00
7309;BME280;3695;53.330;9.876;2022-10-16T09:25:21;107422.34;;;16.03;100.00
7309;BME280;3695;53.330;9.876;2022-10-16T09:27:49;107375.53;;;16.22;100.00
7309;BME280;3695;53.330;9.876;2022-10-16T09:30:20;107209.09;;;15.97;100.00
7309;BME280;3695;53.330;9.876;2022-10-16T09:32:50;107124.16;;;16.25;100.00
7309;BME280;3695;53.330;9.876;2022-10-16T09:35:20;107048.50;;;16.50;100.00
7309;BME280;3695;53.330;9.876;2022-10-16T09:37:49;106987.41;;;16.87;100.00
7309;BME280;3695;53.330;9.876;2022-10-16T09:40:25;106791.13;;;16.72;100.00
7309;BME280;3695;53.330;9.876;2022-10-16T09:42:56;106639.22;;;16.75;100.00
7309;BME280;3695;53.330;9.876;2022-10-16T09:45:24;106134.00;;;16.41;100.00
7309;BME280;3695;53.330;9.876;2022-10-16T09:47:51;106050.56;;;16.45;100.00
7309;BME280;3695;53.330;9.876;2022-10-16T09:50:22;105969.97;;;16.47;100.00
7309;BME280;3695;53.330;9.876;2022-10-16T09:52:50;105884.63;;;16.52;100.00
7309;BME280;3695;53.330;9.876;2022-10-16T09:55:17;105817.03;;;16.31;100.00
7309;BME280;3695;53.330;9.876;2022-10-16T09:57:50;105828.19;;;16.60;100.00
7309;BME280;3695;53.330;9.876;2022-10-16T10:00:17;105774.03;;;16.74;100.00
7309;BME280;3695;53.330;9.876;2022-10-16T10:02:44;105602.19;;;16.64;100.00
7309;BME280;3695;53.330;9.876;2022-10-16T10:05:21;105123.56;;;16.65;100.00
7309;BME280;3695;53.330;9.876;2022-10-16T10:07:54;105082.34;;;17.02;100.00
7309;BME280;3695;53.330;9.876;2022-10-16T10:10:23;104989.06;;;17.12;100.00
7309;BME280;3695;53.330;9.876;2022-10-16T10:12:50;104850.09;;;17.12;100.00
7309;BME280;3695;53.330;9.876;2022-10-16T10:15:16;104701.44;;;16.92;100.00
7309;BME280;3695;53.330;9.876;2022-10-16T10:17:49;104641.91;;;17.19;100.00
7309;BME280;3695;53.330;9.876;2022-10-16T10:20:24;104529.81;;;16.99;100.00
7309;BME280;3695;53.330;9.876;2022-10-16T10:22:51;104466.41;;;17.03;100.00
7309;BME280;3695;53.330;9.876;2022-10-16T10:25:42;104374.78;;;17.13;100.00
7309;BME280;3695;53.330;9.876;2022-10-16T10:28:24;104282.09;;;17.09;100.00
7309;BME280;3695;53.330;9.876;2022-10-16T10:31:02;104257.03;;;17.20;100.00
7309;BME280;3695;53.330;9.876;2022-10-16T10:33:37;104158.13;;;16.90;100.00
7309;BME280;3695;53.330;9.876;2022-10-16T10:36:14;104166.03;;;17.24;100.00
7309;BME280;3695;53.330;9.876;2022-10-16T10:38:48;104140.91;;;17.36;100.00
7309;BME280;3695;53.330;9.876;2022-10-16T10:41:32;104049.13;;;17.46;100.00
7309;BME280;3695;53.330;9.876;2022-10-16T10:44:07;103975.16;;;17.38;100.00
7309;BME280;3695;53.330;9.876;2022-10-16T10:46:41;103876.34;;;17.31;100.00
7309;BME280;3695;53.330;9.876;2022-10-16T10:49:39;103821.44;;;17.25;100.00
7309;BME280;3695;53.330;9.876;2022-10-16T10:55:13;103833.34;;;17.32;100.00
7309;BME280;3695;53.330;9.876;2022-10-16T10:57:51;103814.03;;;17.40;100.00
7309;BME280;3695;53.330;9.876;2022-10-16T11:00:24;103763.44;;;17.43;100.00
7309;BME280;3695;53.330;9.876;2022-10-16T11:02:58;103731.00;;;17.46;100.00
7309;BME280;3695;53.330;9.876;2022-10-16T11:05:40;103654.22;;;17.25;100.00
7309;BME280;3695;53.330;9.876;2022-10-16T11:08:13;103665.38;;;17.59;100.00
7309;BME280;3695;53.330;9.876;2022-10-16T11:10:47;103607.91;;;17.51;100.00
7309;BME280;3695;53.330;9.876;2022-10-16T11:13:23;103576.28;;;17.55;100.00
7309;BME280;3695;53.330;9.876;2022-10-16T11:15:55;103537.63;;;17.29;100.00
7309;BME280;3695;53.330;9.876;2022-10-16T11:18:29;103545.78;;;17.44;100.00
7309;BME280;3695;53.330;9.876;2022-10-16T11:20:58;103553.44;;;17.70;100.00
7309;BME280;3695;53.330;9.876;2022-10-16T11:23:35;103538.22;;;17.95;100.00
7309;BME280;3695;53.330;9.876;2022-10-16T11:26:11;103488.88;;;18.02;100.00
7309;BME280;3695;53.330;9.876;2022-10-16T11:28:42;103406.03;;;17.85;100.00
7309;BME280;3695;53.330;9.876;2022-10-16T11:31:14;103354.72;;;17.79;100.00
7309;BME280;3695;53.330;9.876;2022-10-16T11:33:45;103311.78;;;17.65;100.00
7309;BME280;3695;53.330;9.876;2022-10-16T11:36:17;103291.38;;;17.74;100.00
7309;BME280;3695;53.330;9.876;2022-10-16T11:38:50;103267.25;;;17.56;100.00
7309;BME280;3695;53.330;9.876;2022-10-16T11:41:24;103264.38;;;17.71;100.00
7309;BME280;3695;53.330;9.876;2022-10-16T11:44:03;103245.00;;;17.44;100.00
7309;BME280;3695;53.330;9.876;2022-10-16T11:46:35;103288.56;;;17.60;100.00
7309;BME280;3695;53.330;9.876;2022-10-16T11:49:08;103316.47;;;17.71;100.00
7309;BME280;3695;53.330;9.876;2022-10-16T11:51:39;103303.81;;;17.70;100.00
7309;BME280;3695;53.330;9.876;2022-10-16T11:54:18;103298.38;;;17.83;100.00
7309;BME280;3695;53.330;9.876;2022-10-16T11:56:50;103277.25;;;17.77;100.00
7309;BME280;3695;53.330;9.876;2022-10-16T11:59:23;103247.69;;;17.72;100.00
7309;BME280;3695;53.330;9.876;2022-10-16T12:01:58;103230.50;;;18.05;100.00
7309;BME280;3695;53.330;9.876;2022-10-16T12:04:32;103187.22;;;18.00;100.00
7309;BME280;3695;53.330;9.876;2022-10-16T12:07:03;103131.06;;;18.09;100.00
7309;BME280;3695;53.330;9.876;2022-10-16T12:09:34;103101.44;;;18.38;100.00
7309;BME280;3695;53.330;9.876;2022-10-16T12:12:03;103011.97;;;17.97;100.00
7309;BME280;3695;53.330;9.876;2022-10-16T12:14:38;102973.81;;;17.76;100.00
7309;BME280;3695;53.330;9.876;2022-10-16T12:17:23;103034.56;;;18.12;100.00
7309;BME280;3695;53.330;9.876;2022-10-16T12:20:00;103022.22;;;18.41;100.00
7309;BME280;3695;53.330;9.876;2022-10-16T12:22:29;102958.44;;;18.39;100.00
7309;BME280;3695;53.330;9.876;2022-10-16T12:24:57;102905.88;;;18.36;100.00
7309;BME280;3695;53.330;9.876;2022-10-16T12:27:28;102839.06;;;18.10;100.00
7309;BME280;3695;53.330;9.876;2022-10-16T12:29:56;102802.78;;;18.08;100.00
7309;BME280;3695;53.330;9.876;2022-10-16T12:32:28;102785.03;;;18.42;100.00
7309;BME280;3695;53.330;9.876;2022-10-16T12:34:55;102677.66;;;18.25;100.00
7309;BME280;3695;53.330;9.876;2022-10-16T12:37:25;102617.59;;;18.36;100.00
7309;BME280;3695;53.330;9.876;2022-10-16T12:39:53;102554.53;;;18.29;100.00
7309;BME280;3695;53.330;9.876;2022-10-16T12:42:31;102521.16;;;18.50;100.00
7309;BME280;3695;53.330;9.876;2022-10-16T12:44:58;102478.34;;;18.24;100.00
7309;BME280;3695;53.330;9.876;2022-10-16T12:47:37;102479.59;;;17.85;100.00
7309;BME280;3695;53.330;9.876;2022-10-16T12:50:24;102514.16;;;17.61;100.00
7309;BME280;3695;53.330;9.876;2022-10-16T12:52:50;102557.47;;;17.53;100.00
7309;BME280;3695;53.330;9.876;2022-10-16T12:55:19;102585.44;;;17.30;100.00
7309;BME280;3695;53.330;9.876;2022-10-16T12:57:59;102607.34;;;17.30;100.00
7309;BME280;3695;53.330;9.876;2022-10-16T13:00:33;102622.56;;;17.26;100.00
7309;BME280;3695;53.330;9.876;2022-10-16T13:03:40;102624.94;;;17.16;100.00
7309;BME280;3695;53.330;9.876;2022-10-16T13:06:19;102661.41;;;17.10;100.00
7309;BME280;3695;53.330;9.876;2022-10-16T13:09:13;102691.75;;;17.15;100.00
7309;BME280;3695;53.330;9.876;2022-10-16T13:11:57;102695.16;;;17.04;100.00
7309;BME280;3695;53.330;9.876;2022-10-16T13:14:42;102708.44;;;16.93;100.00
7309;BME280;3695;53.330;9.876;2022-10-16T13:17:19;102733.94;;;17.07;100.00
7309;BME280;3695;53.330;9.876;2022-10-16T13:19:52;102734.13;;;16.99;100.00
7309;BME280;3695;53.330;9.876;2022-10-16T13:22:29;102757.53;;;16.88;100.00
7309;BME280;3695;53.330;9.876;2022-10-16T13:25:08;102749.09;;;16.96;100.00